Mayer, AZ

1:01 PM MST on December 25, 2014 (GMT -0700)
Spring Valley | Change Station
CLOSE
Current Station
Personal Weather Station
Location: Mayer, AZ
Elevation: 3917 ft
Nearby Weather Stations

Elev 3917 ft 34.34 °N, 112.16 °W | Updated 29 minutes ago

Mostly Cloudy
Mostly Cloudy
53.1 °F
Feels Like 53.1 °F
N
5.0
Wind Variable Wind from SSW
Gusts 5.0 mph

Today
High -- | Low -- °F
--% Chance of Precip.
Yesterday
High -- | Low -- °F
Precip. -- in
7:32 AM 5:24 PM
Waxing Crescent, 19% visible
Pressure 29.61 in
Visibility 10.0 miles
Clouds Few 5500 ft
Dew Point 25 °F
Humidity 33%
Rainfall 0.00 in
Snow Depth Not available.
UV 3 out of 12
Pollen 4.10 out of 12
Air Quality Not available.
Flu Activity Not available.
METAR KPRC 251953Z 23013G21KT 10SM FEW055 07/M07 A2969 RMK AO2 SLP026 T00721072

More Conditions Fewer Conditions

Pressure 29.61 in
Visibility 10.0 miles
Clouds Few 5500 ft
Dew Point 25 °F
Humidity 33%
Rainfall 0.00 in
Snow Depth Not available.
UV 3 out of 12
Pollen 4.10 out of 12
Air Quality Not available.
Flu Activity Not available.
METAR KPRC 251953Z 23013G21KT 10SM FEW055 07/M07 A2969 RMK AO2 SLP026 T00721072

More Conditions Fewer Conditions

10-Day Weather Forecast

Almanac

Astronomy

Dec. 25, 2014 Rise Set
Actual Time
Civil Twilight
Nautical Twilight
Astronomical Twilight
Moon
Length of Visible Light
Length of Day
Tomorrow will be .
, % of the Moon is Illuminated

Today's Extremes

State Highs State Lows

Community

WunderPhotos

Upload Photos

1,780,385 photos uploaded!

WunderBlogs® & News

Nearby

Air Quality

  Air Quality AQ Index Pollutant
Not available.

Snow Depth

Station Depth Elevation

Earthquake Activity

City Distance Mag. Time & Date
Minimum magnitude displayed is 2.5.

Coastal Water Temperatures

Place Temperature

Nearby Weather Stations